createdAt,value
2023-04-12T00:01:44.433Z,6.75
2023-04-12T00:04:14.604Z,9.37
2023-04-12T00:06:42.586Z,9.88
2023-04-12T00:09:09.540Z,9.45
2023-04-12T00:11:36.732Z,8.77
2023-04-12T00:14:03.661Z,7.78
2023-04-12T00:16:30.870Z,10.43
2023-04-12T00:18:58.022Z,8.95
2023-04-12T00:21:28.768Z,9.38
2023-04-12T00:23:56.819Z,8.40
2023-04-12T00:26:25.615Z,9.85
2023-04-12T00:28:52.633Z,9.07
2023-04-12T00:31:19.572Z,9.13
2023-04-12T00:33:46.575Z,10.90
2023-04-12T00:36:13.601Z,10.10
2023-04-12T00:38:40.707Z,8.93
2023-04-12T00:41:07.697Z,8.48
2023-04-12T00:43:34.651Z,9.18
2023-04-12T00:46:01.901Z,8.90
2023-04-12T00:48:29.082Z,9.27
2023-04-12T00:50:57.637Z,13.88
2023-04-12T00:53:24.620Z,9.32
2023-04-12T00:55:52.451Z,10.80
2023-04-12T00:58:19.368Z,8.95
2023-04-12T01:00:50.383Z,10.68
2023-04-12T01:03:23.664Z,9.13
2023-04-12T01:06:04.845Z,10.27
2023-04-12T01:08:44.557Z,9.65
2023-04-12T01:11:28.712Z,8.50
2023-04-12T01:14:23.138Z,11.70
2023-04-12T01:16:53.886Z,10.73
2023-04-12T01:19:37.261Z,9.53
2023-04-12T01:22:19.682Z,11.02
2023-04-12T01:24:57.626Z,12.02
2023-04-12T01:27:45.271Z,9.23
2023-04-12T01:30:14.736Z,12.77
2023-04-12T01:32:44.428Z,11.30
2023-04-12T01:35:11.786Z,10.15
2023-04-12T01:37:39.549Z,9.67
2023-04-12T01:40:09.179Z,10.32
2023-04-12T01:42:36.374Z,10.20
2023-04-12T01:45:04.090Z,11.63
2023-04-12T01:47:31.415Z,10.40
2023-04-12T01:50:20.548Z,8.88
2023-04-12T01:53:03.086Z,9.60
2023-04-12T01:55:32.609Z,10.80
2023-04-12T01:58:01.239Z,10.07
2023-04-12T02:00:29.073Z,8.63
2023-04-12T02:02:57.763Z,11.98
2023-04-12T02:05:25.627Z,14.27
2023-04-12T02:07:52.854Z,10.88
2023-04-12T02:10:30.491Z,9.65
2023-04-12T02:13:02.812Z,11.27
2023-04-12T02:15:30.125Z,10.77
2023-04-12T02:17:59.421Z,9.38
2023-04-12T02:20:27.359Z,10.30
2023-04-12T02:22:55.049Z,11.80
2023-04-12T02:25:22.172Z,10.20
2023-04-12T02:27:49.297Z,11.95
2023-04-12T02:30:16.551Z,10.95
2023-04-12T02:32:46.737Z,9.07
2023-04-12T02:35:19.332Z,8.68
2023-04-12T02:37:47.528Z,11.23
2023-04-12T02:40:15.746Z,11.23
2023-04-12T02:42:43.578Z,9.77
2023-04-12T02:45:11.874Z,9.25
2023-04-12T02:47:40.793Z,9.73
2023-04-12T02:50:09.434Z,11.32
2023-04-12T02:52:36.673Z,7.95
2023-04-12T02:55:04.834Z,7.88
2023-04-12T02:57:31.897Z,7.88
2023-04-12T02:59:59.115Z,8.83
2023-04-12T03:02:26.495Z,9.50
2023-04-12T03:04:54.999Z,8.45
2023-04-12T03:07:22.637Z,6.70
2023-04-12T03:09:50.858Z,7.68
2023-04-12T03:12:18.026Z,7.00
2023-04-12T03:14:45.564Z,6.70
2023-04-12T03:17:12.733Z,6.72
2023-04-12T03:19:40.435Z,6.75
2023-04-12T03:22:07.441Z,7.97
2023-04-12T03:24:34.969Z,8.23
2023-04-12T03:27:02.949Z,9.20
2023-04-12T03:29:33.454Z,7.53
2023-04-12T03:32:00.849Z,8.50
2023-04-12T03:34:32.611Z,7.15
2023-04-12T03:37:01.587Z,8.77
2023-04-12T03:39:29.314Z,8.55
2023-04-12T03:41:56.509Z,6.55
2023-04-12T03:44:26.230Z,8.63
2023-04-12T03:46:53.833Z,8.52
2023-04-12T03:49:21.630Z,8.98
2023-04-12T03:51:50.925Z,8.07
2023-04-12T03:54:18.078Z,7.63
2023-04-12T03:56:46.403Z,7.60
2023-04-12T03:59:14.826Z,7.60
2023-04-12T04:01:43.394Z,6.45
2023-04-12T04:04:11.124Z,6.38
2023-04-12T04:06:38.793Z,7.35
2023-04-12T04:09:06.366Z,7.57
2023-04-12T04:11:33.454Z,8.25
2023-04-12T04:14:00.764Z,8.93
2023-04-12T04:16:29.452Z,7.43
2023-04-12T04:18:56.925Z,11.18
2023-04-12T04:21:24.939Z,8.48
2023-04-12T04:23:53.020Z,8.10
2023-04-12T04:26:20.403Z,9.40
2023-04-12T04:28:47.462Z,9.43
2023-04-12T04:31:17.729Z,11.70
2023-04-12T04:33:45.273Z,10.30
2023-04-12T04:36:15.516Z,10.90
2023-04-12T04:38:42.774Z,10.10
2023-04-12T04:41:10.656Z,11.02
2023-04-12T04:43:40.174Z,11.30
2023-04-12T04:46:07.311Z,10.27
2023-04-12T04:48:34.615Z,11.17
2023-04-12T04:51:02.712Z,9.30
2023-04-12T04:53:29.862Z,9.70
2023-04-12T04:56:01.064Z,11.20
2023-04-12T04:58:31.127Z,11.77
2023-04-12T05:00:59.223Z,11.70
2023-04-12T05:03:31.148Z,11.13
2023-04-12T05:05:59.099Z,7.37
2023-04-12T05:08:26.411Z,9.35
2023-04-12T05:10:53.584Z,10.02
2023-04-12T05:13:22.413Z,10.98
2023-04-12T05:15:50.617Z,8.90
2023-04-12T05:18:20.705Z,9.20
2023-04-12T05:20:48.760Z,10.70
2023-04-12T05:23:16.509Z,10.13
2023-04-12T05:25:47.292Z,10.85
2023-04-12T05:28:15.971Z,9.15
2023-04-12T05:30:44.438Z,9.98
2023-04-12T05:33:11.871Z,11.85
2023-04-12T05:35:39.083Z,10.57
2023-04-12T05:38:07.970Z,12.82
2023-04-12T05:40:36.685Z,11.68
2023-04-12T05:43:03.859Z,12.15
2023-04-12T05:45:31.759Z,9.10
2023-04-12T05:47:59.059Z,10.57
2023-04-12T05:50:26.865Z,10.45
2023-04-12T05:52:55.454Z,11.05
2023-04-12T05:55:22.910Z,12.50
2023-04-12T05:57:50.360Z,12.25
2023-04-12T06:00:18.735Z,12.40
2023-04-12T06:02:46.319Z,10.95
2023-04-12T06:05:19.696Z,14.73
2023-04-12T06:07:48.492Z,13.48
2023-04-12T06:10:17.374Z,17.60
2023-04-12T06:12:45.899Z,12.88
2023-04-12T06:15:14.690Z,14.73
2023-04-12T06:17:41.915Z,19.30
2023-04-12T06:20:16.682Z,16.75
2023-04-12T06:22:43.880Z,17.35
2023-04-12T06:25:14.356Z,14.18
2023-04-12T06:27:42.265Z,15.75
2023-04-12T06:30:10.365Z,15.95
2023-04-12T06:32:41.607Z,14.65
2023-04-12T06:35:11.332Z,15.82
2023-04-12T06:37:39.563Z,21.15
2023-04-12T06:40:12.783Z,19.77
2023-04-12T06:42:40.472Z,15.40
2023-04-12T06:45:08.016Z,18.60
2023-04-12T06:47:35.691Z,17.23
2023-04-12T06:50:03.591Z,18.85
2023-04-12T06:52:35.001Z,19.85
2023-04-12T06:55:02.797Z,14.32
2023-04-12T06:57:30.785Z,16.30
2023-04-12T06:59:58.158Z,17.50
2023-04-12T07:02:27.774Z,19.63
2023-04-12T07:04:56.463Z,16.60
2023-04-12T07:07:24.136Z,17.55
2023-04-12T07:09:53.293Z,15.18
2023-04-12T07:12:25.101Z,15.60
2023-04-12T07:14:53.568Z,15.60
2023-04-12T07:17:22.884Z,17.48
2023-04-12T07:19:50.645Z,16.23
2023-04-12T07:22:17.957Z,18.50
2023-04-12T07:24:45.621Z,14.35
2023-04-12T07:27:13.807Z,22.07
2023-04-12T07:29:41.688Z,16.55
2023-04-12T07:32:10.876Z,15.30
2023-04-12T07:34:39.607Z,16.08
2023-04-12T07:37:07.100Z,16.65
2023-04-12T07:39:35.212Z,10.93
2023-04-12T07:42:02.478Z,12.73
2023-04-12T07:44:31.326Z,16.67
2023-04-12T07:46:58.829Z,11.48
2023-04-12T07:49:27.057Z,13.70
2023-04-12T07:51:54.103Z,15.05
2023-04-12T07:54:22.341Z,11.55
2023-04-12T07:57:01.511Z,14.02
2023-04-12T07:59:28.930Z,10.90
2023-04-12T08:01:56.349Z,8.88
2023-04-12T08:04:26.022Z,8.98
2023-04-12T08:06:56.621Z,10.90
2023-04-12T08:09:25.160Z,10.25
2023-04-12T08:11:53.626Z,9.93
2023-04-12T08:14:21.177Z,10.70
2023-04-12T08:16:49.003Z,11.88
2023-04-12T08:19:20.562Z,7.95
2023-04-12T08:21:47.912Z,7.22
2023-04-12T08:24:16.604Z,6.32
2023-04-12T08:26:43.756Z,7.00
2023-04-12T08:29:11.048Z,7.15
2023-04-12T08:31:42.639Z,8.45
2023-04-12T08:34:10.321Z,7.90
2023-04-12T08:36:37.564Z,6.80
2023-04-12T08:39:06.454Z,7.70
2023-04-12T08:41:37.824Z,7.85
2023-04-12T08:44:06.407Z,8.77
2023-04-12T08:46:37.760Z,5.38
2023-04-12T08:49:04.993Z,8.98
2023-04-12T08:51:34.190Z,7.28
2023-04-12T08:54:02.342Z,8.80
2023-04-12T08:56:31.411Z,8.07
2023-04-12T08:59:00.141Z,9.68
2023-04-12T09:01:27.812Z,7.32
2023-04-12T09:03:55.650Z,7.93
2023-04-12T09:06:23.906Z,11.30
2023-04-12T09:08:52.742Z,10.82
2023-04-12T09:11:28.075Z,10.63
2023-04-12T09:13:57.891Z,9.57
2023-04-12T09:16:43.653Z,12.23
2023-04-12T09:19:11.154Z,12.85
2023-04-12T09:21:52.577Z,11.23
2023-04-12T09:24:19.861Z,11.25
2023-04-12T09:26:48.614Z,11.43
2023-04-12T09:29:25.620Z,14.07
2023-04-12T09:32:07.504Z,16.80
2023-04-12T09:34:36.661Z,13.68
2023-04-12T09:37:16.880Z,13.90
2023-04-12T09:39:44.205Z,13.20
2023-04-12T09:42:29.875Z,12.65
2023-04-12T09:45:02.132Z,14.50
2023-04-12T09:47:40.189Z,14.20
2023-04-12T09:50:10.063Z,16.20
2023-04-12T09:52:38.953Z,13.57
2023-04-12T09:55:10.767Z,14.83
2023-04-12T09:57:42.746Z,13.00
2023-04-12T10:00:17.138Z,14.40
2023-04-12T10:02:52.476Z,13.07
2023-04-12T10:05:25.983Z,16.45
2023-04-12T10:07:55.292Z,15.13
2023-04-12T10:10:23.355Z,14.67
2023-04-12T10:12:51.254Z,17.10
2023-04-12T10:15:22.040Z,15.40
2023-04-12T10:17:53.459Z,14.68
2023-04-12T10:20:24.834Z,14.40
2023-04-12T10:22:56.246Z,14.30
2023-04-12T10:25:26.055Z,16.85
2023-04-12T10:27:57.848Z,14.23
2023-04-12T10:30:28.814Z,17.42
2023-04-12T10:33:05.537Z,17.13
2023-04-12T10:35:55.801Z,16.83
2023-04-12T10:38:28.166Z,14.70
2023-04-12T10:41:09.248Z,13.73
2023-04-12T10:43:36.613Z,15.75
2023-04-12T10:46:08.170Z,16.38
2023-04-12T10:48:51.916Z,12.85
2023-04-12T10:51:25.397Z,13.63
2023-04-12T10:53:54.370Z,15.13
2023-04-12T10:56:32.665Z,13.18
2023-04-12T10:59:01.680Z,15.40
2023-04-12T11:01:29.904Z,13.82
2023-04-12T11:04:20.710Z,16.53
2023-04-12T11:07:21.503Z,13.40
2023-04-12T11:09:50.961Z,11.77
2023-04-12T11:12:18.967Z,14.90
2023-04-12T11:14:50.888Z,12.77
2023-04-12T11:17:21.884Z,16.27
2023-04-12T11:20:03.679Z,11.88
2023-04-12T11:22:33.287Z,11.60
2023-04-12T11:25:02.436Z,14.70
2023-04-12T11:27:31.684Z,12.47
2023-04-12T11:30:00.941Z,15.25
2023-04-12T11:32:31.045Z,15.98
2023-04-12T11:35:00.433Z,17.83
2023-04-12T11:37:27.991Z,12.90
2023-04-12T11:39:57.668Z,14.50
2023-04-12T11:42:29.220Z,13.20
2023-04-12T11:45:01.416Z,13.93
2023-04-12T11:47:32.015Z,13.90
2023-04-12T11:50:00.413Z,16.70
2023-04-12T11:52:30.310Z,11.70
2023-04-12T11:55:01.026Z,12.15
2023-04-12T11:57:29.343Z,12.60
2023-04-12T11:59:58.380Z,15.27
2023-04-12T12:02:28.812Z,14.07
2023-04-12T12:05:04.738Z,13.00
2023-04-12T12:07:32.915Z,14.68
2023-04-12T12:10:05.594Z,14.35
2023-04-12T12:12:34.183Z,13.03
2023-04-12T12:15:04.905Z,15.15
2023-04-12T12:17:39.165Z,20.33
2023-04-12T12:20:07.040Z,16.13
2023-04-12T12:22:34.634Z,15.97
2023-04-12T12:25:01.948Z,14.45
2023-04-12T12:27:38.734Z,14.23
2023-04-12T12:30:10.067Z,13.60
2023-04-12T12:32:40.504Z,12.35
2023-04-12T12:35:10.048Z,10.38
2023-04-12T12:37:37.618Z,10.25
2023-04-12T12:40:13.648Z,7.70
2023-04-12T12:42:55.967Z,7.45
2023-04-12T12:45:27.978Z,8.63
2023-04-12T12:47:58.788Z,8.00
2023-04-12T12:50:32.375Z,8.40
2023-04-12T12:53:01.472Z,9.80
2023-04-12T12:55:29.976Z,8.65
2023-04-12T12:58:06.917Z,6.97
2023-04-12T13:00:37.613Z,7.85
2023-04-12T13:03:04.927Z,7.43
2023-04-12T13:05:32.348Z,9.52
2023-04-12T13:07:59.662Z,9.87
2023-04-12T13:10:27.730Z,9.60
2023-04-12T13:12:57.089Z,9.43
2023-04-12T13:15:25.064Z,9.83
2023-04-12T13:17:53.999Z,8.50
2023-04-12T13:20:22.366Z,9.50
2023-04-12T13:22:52.154Z,7.35
2023-04-12T13:25:21.664Z,9.43
2023-04-12T13:27:51.013Z,8.80
2023-04-12T13:30:19.162Z,8.63
2023-04-12T13:32:46.761Z,7.60
2023-04-12T13:35:14.149Z,7.38
2023-04-12T13:37:42.211Z,9.03
2023-04-12T13:40:12.132Z,10.80
2023-04-12T13:42:40.549Z,10.90
2023-04-12T13:45:08.542Z,8.43
2023-04-12T13:47:36.951Z,10.18
2023-04-12T13:50:04.229Z,10.48
2023-04-12T13:52:32.525Z,12.15
2023-04-12T13:55:00.295Z,11.60
2023-04-12T13:57:28.158Z,15.25
2023-04-12T13:59:55.515Z,12.57
2023-04-12T14:02:22.785Z,12.43
2023-04-12T14:04:55.406Z,16.55
2023-04-12T14:07:23.211Z,12.13
2023-04-12T14:09:50.870Z,12.37
2023-04-12T14:12:18.157Z,11.55
2023-04-12T14:14:45.685Z,13.90
2023-04-12T14:17:12.940Z,13.77
2023-04-12T14:19:42.646Z,15.00
2023-04-12T14:22:09.794Z,11.77
2023-04-12T14:24:40.136Z,11.20
2023-04-12T14:27:07.773Z,9.70
2023-04-12T14:29:37.736Z,9.13
2023-04-12T14:32:05.449Z,6.68
2023-04-12T14:34:32.845Z,6.75
2023-04-12T14:37:00.532Z,5.78
2023-04-12T14:39:32.981Z,6.80
2023-04-12T14:42:00.383Z,6.22
2023-04-12T14:44:28.014Z,6.95
2023-04-12T14:46:55.595Z,6.63
2023-04-12T14:49:22.911Z,7.88
2023-04-12T14:51:50.297Z,6.83
2023-04-12T14:54:17.847Z,7.80
2023-04-12T14:56:53.514Z,6.13
2023-04-12T14:59:24.324Z,6.32
2023-04-12T15:01:52.881Z,7.60
2023-04-12T15:04:21.751Z,7.65
2023-04-12T15:06:51.820Z,7.32
2023-04-12T15:09:19.303Z,7.85
2023-04-12T15:11:52.572Z,6.38
2023-04-12T15:14:20.732Z,6.97
2023-04-12T15:16:51.517Z,5.05
2023-04-12T15:19:22.752Z,7.18
2023-04-12T15:21:56.313Z,6.05
2023-04-12T15:24:25.714Z,9.75
2023-04-12T15:26:55.065Z,9.30
2023-04-12T15:29:24.230Z,5.85
2023-04-12T15:31:53.110Z,7.00
2023-04-12T15:34:23.692Z,6.53
2023-04-12T15:36:52.264Z,5.22
2023-04-12T15:39:21.425Z,5.35
2023-04-12T15:41:50.207Z,4.22
2023-04-12T15:44:17.565Z,6.38
2023-04-12T15:46:53.364Z,6.47
2023-04-12T15:49:27.570Z,6.20
2023-04-12T15:51:57.781Z,8.38
2023-04-12T15:54:26.351Z,7.63
2023-04-12T15:56:54.960Z,4.20
2023-04-12T15:59:22.598Z,5.25
2023-04-12T16:01:51.881Z,4.85
2023-04-12T16:04:19.783Z,6.47
2023-04-12T16:06:47.732Z,4.95
2023-04-12T16:09:17.864Z,6.13
2023-04-12T16:11:46.614Z,3.97
2023-04-12T16:14:15.057Z,6.10
2023-04-12T16:16:42.194Z,4.57
2023-04-12T16:19:10.828Z,5.23
2023-04-12T16:21:42.071Z,4.25
2023-04-12T16:24:11.825Z,3.90
2023-04-12T16:26:45.759Z,4.18
2023-04-12T16:29:14.194Z,4.93
2023-04-12T16:31:41.676Z,4.10
2023-04-12T16:34:10.035Z,4.93
2023-04-12T16:36:37.764Z,3.70
2023-04-12T16:39:07.315Z,3.30
2023-04-12T16:41:34.838Z,4.47
2023-04-12T16:44:03.409Z,3.78
2023-04-12T16:46:33.442Z,3.65
2023-04-12T16:49:05.049Z,5.00
2023-04-12T16:54:21.866Z,2.83
2023-04-12T16:56:54.228Z,3.05
2023-04-12T16:59:21.740Z,2.60
2023-04-12T17:01:50.355Z,3.05
2023-04-12T17:04:18.917Z,2.67
2023-04-12T17:06:46.340Z,2.57
2023-04-12T17:09:14.084Z,3.05
2023-04-12T17:11:41.941Z,2.60
2023-04-12T17:14:09.515Z,2.90
2023-04-12T17:16:36.849Z,3.20
2023-04-12T17:19:04.188Z,3.08
2023-04-12T17:21:41.168Z,3.80
2023-04-12T17:24:11.794Z,2.17
2023-04-12T17:26:40.488Z,2.78
2023-04-12T17:29:08.583Z,2.33
2023-04-12T17:31:36.087Z,3.37
2023-04-12T17:34:06.546Z,3.40
2023-04-12T17:36:34.030Z,3.13
2023-04-12T17:39:04.922Z,3.20
2023-04-12T17:41:32.605Z,3.03
2023-04-12T17:44:02.698Z,2.67
2023-04-12T17:46:31.488Z,2.97
2023-04-12T17:49:04.290Z,3.10
2023-04-12T17:51:32.295Z,2.03
2023-04-12T17:54:02.693Z,3.08
2023-04-12T17:56:29.873Z,2.83
2023-04-12T17:58:59.834Z,2.88
2023-04-12T18:01:30.642Z,3.20
2023-04-12T18:04:00.853Z,3.72
2023-04-12T18:06:29.463Z,3.70
2023-04-12T18:08:56.703Z,3.08
2023-04-12T18:11:25.494Z,2.70
2023-04-12T18:13:55.832Z,3.20
2023-04-12T18:16:23.315Z,3.78
2023-04-12T18:18:50.657Z,2.00
2023-04-12T18:21:21.493Z,2.90
2023-04-12T18:23:56.050Z,3.83
2023-04-12T18:26:24.650Z,3.28
2023-04-12T18:28:52.395Z,2.90
2023-04-12T18:31:19.626Z,1.67
2023-04-12T18:33:46.965Z,2.90
2023-04-12T18:36:14.504Z,1.93
2023-04-12T18:38:43.687Z,2.63
2023-04-12T18:41:16.588Z,3.15
2023-04-12T18:43:44.316Z,2.25
2023-04-12T18:46:19.723Z,2.70
2023-04-12T18:48:48.473Z,3.00
2023-04-12T18:51:15.594Z,3.70
2023-04-12T18:53:43.127Z,2.38
2023-04-12T18:56:13.947Z,3.20
2023-04-12T18:58:54.434Z,3.10
2023-04-12T19:01:24.105Z,3.00
2023-04-12T19:03:54.152Z,3.47
2023-04-12T19:06:21.756Z,3.33
2023-04-12T19:08:49.809Z,4.90
2023-04-12T19:11:17.511Z,3.80
2023-04-12T19:13:44.678Z,3.80
2023-04-12T19:16:12.702Z,4.57
2023-04-12T19:18:40.230Z,4.32
2023-04-12T19:21:08.015Z,5.93
2023-04-12T19:23:35.444Z,3.63
2023-04-12T19:26:04.347Z,4.68
2023-04-12T19:28:32.092Z,5.40
2023-04-12T19:31:05.309Z,5.63
2023-04-12T19:33:32.828Z,5.20
2023-04-12T19:36:00.225Z,5.50
2023-04-12T19:38:28.142Z,5.15
2023-04-12T19:40:56.037Z,6.40
2023-04-12T19:43:25.435Z,4.88
2023-04-12T19:45:53.346Z,4.60
2023-04-12T19:48:20.991Z,5.32
2023-04-12T19:50:48.859Z,5.78
2023-04-12T19:53:21.518Z,6.88
2023-04-12T19:55:49.013Z,6.18
2023-04-12T19:58:16.284Z,5.47
2023-04-12T20:00:45.139Z,4.38
2023-04-12T20:03:12.778Z,7.20
2023-04-12T20:05:42.882Z,8.05
2023-04-12T20:08:13.369Z,6.18
2023-04-12T20:10:40.935Z,5.07
2023-04-12T20:13:13.765Z,7.20
2023-04-12T20:15:44.918Z,4.10
2023-04-12T20:18:13.689Z,3.92
2023-04-12T20:20:45.908Z,4.25
2023-04-12T20:23:14.077Z,5.25
2023-04-12T20:25:43.872Z,6.10
2023-04-12T20:28:12.157Z,6.47
2023-04-12T20:30:40.277Z,6.85
2023-04-12T20:33:08.802Z,5.57
2023-04-12T20:35:36.840Z,5.05
2023-04-12T20:38:04.619Z,6.97
2023-04-12T20:40:32.982Z,4.93
2023-04-12T20:43:00.856Z,6.05
2023-04-12T20:45:28.067Z,3.90
2023-04-12T20:47:55.437Z,5.63
2023-04-12T20:50:22.652Z,4.60
2023-04-12T20:52:52.094Z,6.35
2023-04-12T20:55:20.056Z,5.03
2023-04-12T20:57:49.154Z,4.10
2023-04-12T21:00:19.068Z,5.82
2023-04-12T21:02:49.251Z,4.50
2023-04-12T21:05:24.261Z,5.93
2023-04-12T21:07:52.098Z,4.78
2023-04-12T21:10:22.839Z,4.22
2023-04-12T21:12:52.275Z,4.25
2023-04-12T21:15:29.814Z,5.55
2023-04-12T21:18:04.874Z,3.60
2023-04-12T21:20:35.398Z,5.07
2023-04-12T21:23:05.218Z,4.32
2023-04-12T21:25:34.442Z,4.80
2023-04-12T21:28:01.707Z,4.82
2023-04-12T21:30:32.544Z,5.65
2023-04-12T21:33:02.596Z,4.35
2023-04-12T21:35:30.293Z,5.47
2023-04-12T21:37:57.658Z,5.80
2023-04-12T21:40:24.816Z,6.10
2023-04-12T21:42:53.257Z,3.78
2023-04-12T21:45:21.792Z,4.28
2023-04-12T21:47:54.223Z,5.80
2023-04-12T21:50:23.453Z,5.50
2023-04-12T21:52:50.990Z,5.23
2023-04-12T21:55:19.085Z,5.38
2023-04-12T21:57:46.798Z,4.77
2023-04-12T22:00:16.027Z,4.57
2023-04-12T22:02:46.231Z,3.90
2023-04-12T22:05:13.557Z,3.93
2023-04-12T22:07:42.193Z,3.80
2023-04-12T22:10:12.354Z,4.60
2023-04-12T22:12:40.712Z,5.88
2023-04-12T22:15:11.518Z,4.23
2023-04-12T22:17:41.988Z,4.13
2023-04-12T22:20:13.672Z,3.92
2023-04-12T22:22:41.443Z,3.45
2023-04-12T22:25:12.313Z,3.85
2023-04-12T22:27:40.407Z,2.78
2023-04-12T22:30:08.853Z,3.05
2023-04-12T22:32:39.544Z,3.67
2023-04-12T22:35:08.823Z,3.40
2023-04-12T22:37:39.322Z,2.75
2023-04-12T22:40:11.437Z,3.78
2023-04-12T22:42:47.486Z,3.08
2023-04-12T22:45:16.001Z,3.15
2023-04-12T22:47:48.042Z,3.63
2023-04-12T22:50:15.563Z,2.15
2023-04-12T22:52:42.750Z,1.75
2023-04-12T22:55:18.276Z,2.80
2023-04-12T22:57:46.930Z,2.30
2023-04-12T23:00:17.208Z,3.28
2023-04-12T23:02:46.201Z,2.25
2023-04-12T23:05:14.315Z,3.20
2023-04-12T23:08:14.306Z,2.38
2023-04-12T23:10:51.401Z,2.97
2023-04-12T23:13:56.729Z,3.05
2023-04-12T23:16:24.963Z,3.17
2023-04-12T23:18:52.612Z,2.80
2023-04-12T23:21:19.821Z,2.60
2023-04-12T23:23:47.039Z,2.88
2023-04-12T23:26:16.087Z,2.42
2023-04-12T23:28:43.499Z,4.53
2023-04-12T23:31:12.354Z,3.92
2023-04-12T23:33:43.129Z,3.75
2023-04-12T23:36:10.953Z,3.25
2023-04-12T23:38:44.601Z,2.58
2023-04-12T23:41:12.621Z,3.08
2023-04-12T23:43:43.323Z,4.82
2023-04-12T23:46:10.908Z,2.30
2023-04-12T23:48:39.660Z,3.17
2023-04-12T23:51:07.107Z,4.77
2023-04-12T23:53:36.611Z,5.43
2023-04-12T23:56:03.938Z,3.42
2023-04-12T23:58:31.432Z,4.03
